Time;durP1;ratioP1;P1;durP2;ratioP2;P2;SDS_P1;SDS_P2;PMS_P1;PMS_P2;Temp;Humidity;BMP_temperature;BMP_pressure;BME280_temperature;BME280_humidity;BME280_pressure;Samples;Min_cycle;Max_cycle;Signal;HPM_P1;HPM_P2
2020/12/08 00:02:23;;;;;;;11.20;4.43;;;1.10;99.90;;;;;;5031045;28;20045;-85
2020/12/08 00:04:48;;;;;;;7.47;3.80;;;1.20;99.90;;;;;;5031033;28;20117;-84
2020/12/08 00:07:14;;;;;;;10.43;4.40;;;1.00;99.90;;;;;;5030953;28;20090;-85
2020/12/08 00:09:40;;;;;;;7.82;3.65;;;0.90;99.90;;;;;;5031191;28;20033;-84
2020/12/08 00:12:06;;;;;;;11.52;4.07;;;0.90;99.90;;;;;;5031324;28;20033;-83
2020/12/08 00:14:31;;;;;;;9.68;4.32;;;1.00;99.90;;;;;;5026683;28;20089;-84
2020/12/08 00:16:57;;;;;;;10.05;4.07;;;1.20;99.90;;;;;;5011210;28;20030;-84
2020/12/08 00:19:23;;;;;;;10.10;3.88;;;1.30;99.90;;;;;;5011114;28;20093;-82
2020/12/08 00:21:48;;;;;;;12.20;5.03;;;1.30;99.90;;;;;;5011355;28;20485;-85
2020/12/08 00:24:14;;;;;;;12.15;5.38;;;1.40;99.90;;;;;;5011177;28;20119;-83
2020/12/08 00:26:41;;;;;;;9.98;4.57;;;1.50;99.90;;;;;;5010982;28;20041;-81
2020/12/08 00:29:07;;;;;;;10.13;4.80;;;1.50;99.90;;;;;;5010992;28;20030;-83
2020/12/08 00:31:34;;;;;;;9.98;4.57;;;1.40;99.90;;;;;;4994809;28;20417;-84
2020/12/08 00:34:00;;;;;;;10.23;5.00;;;1.50;99.90;;;;;;4993777;28;20037;-85
2020/12/08 00:36:26;;;;;;;9.40;4.50;;;1.40;99.90;;;;;;5010767;28;20049;-83
2020/12/08 00:38:52;;;;;;;9.88;4.75;;;1.40;99.90;;;;;;5011027;28;20042;-85
2020/12/08 00:41:22;;;;;;;8.43;3.83;;;1.40;99.90;;;;;;5010670;28;20026;-83
2020/12/08 00:43:49;;;;;;;9.00;4.65;;;1.40;99.90;;;;;;5028306;28;20034;-82
2020/12/08 00:46:16;;;;;;;11.80;5.80;;;1.60;99.90;;;;;;4994489;28;20056;-83
2020/12/08 00:48:43;;;;;;;9.63;4.57;;;1.60;99.90;;;;;;5011048;28;20033;-84
2020/12/08 00:51:10;;;;;;;7.22;3.88;;;1.60;99.90;;;;;;5026825;28;20033;-83
2020/12/08 00:53:36;;;;;;;8.70;3.80;;;1.50;99.90;;;;;;4994664;28;20026;-83
2020/12/08 00:56:13;;;;;;;9.70;4.47;;;1.50;99.90;;;;;;4994466;28;20033;-83
2020/12/08 00:58:42;;;;;;;10.50;4.68;;;1.50;99.90;;;;;;4994836;28;20037;-86
2020/12/08 01:01:10;;;;;;;9.88;4.25;;;1.50;99.90;;;;;;4994397;28;20029;-85
2020/12/08 01:03:36;;;;;;;9.63;4.20;;;1.50;99.90;;;;;;4994176;28;20038;-85
2020/12/08 01:06:07;;;;;;;8.55;4.32;;;1.60;99.90;;;;;;5009773;28;20049;-84
2020/12/08 01:08:33;;;;;;;;;;;1.70;99.90;;;;;;5010872;28;20106;-83
2020/12/08 01:10:59;;;;;;;10.50;4.43;;;1.60;99.90;;;;;;5009961;28;19926;-85
2020/12/08 01:13:34;;;;;;;10.68;4.70;;;1.70;99.90;;;;;;5010135;28;20037;-83
2020/12/08 01:16:02;;;;;;;11.07;4.90;;;1.70;99.90;;;;;;5009962;28;20052;-84
2020/12/08 01:18:28;;;;;;;12.82;5.43;;;1.80;99.90;;;;;;5029823;28;20037;-83
2020/12/08 01:20:57;;;;;;;12.45;5.47;;;1.80;99.90;;;;;;5013446;28;20049;-86
2020/12/08 01:23:24;;;;;;;10.07;5.37;;;1.80;99.90;;;;;;5013414;28;20092;-86
2020/12/08 01:25:50;;;;;;;11.82;4.72;;;1.60;99.90;;;;;;5029456;28;20033;-83
2020/12/08 01:28:17;;;;;;;8.32;4.63;;;1.60;99.90;;;;;;5013262;28;20026;-82
2020/12/08 01:30:46;;;;;;;8.02;3.95;;;1.50;99.90;;;;;;5013236;28;20029;-82
2020/12/08 01:33:11;;;;;;;11.30;5.78;;;1.50;99.90;;;;;;5029581;28;20036;-82
2020/12/08 01:35:37;;;;;;;11.35;5.15;;;1.40;99.90;;;;;;5012796;28;20030;-84
2020/12/08 01:38:04;;;;;;;9.15;4.40;;;1.40;99.90;;;;;;5012796;28;20026;-83
2020/12/08 01:40:29;;;;;;;11.52;4.75;;;1.30;99.90;;;;;;5012814;28;20037;-84
2020/12/08 01:42:55;;;;;;;10.85;4.43;;;1.20;99.90;;;;;;5028928;28;20067;-85
2020/12/08 01:45:21;;;;;;;9.27;4.50;;;1.10;99.90;;;;;;5028950;28;20026;-83
2020/12/08 01:47:50;;;;;;;11.52;4.70;;;1.00;99.90;;;;;;5013169;28;20034;-83
2020/12/08 01:50:19;;;;;;;9.82;4.28;;;1.00;99.90;;;;;;5012835;28;20029;-83
2020/12/08 01:52:46;;;;;;;9.57;4.47;;;1.00;99.90;;;;;;5029348;28;20056;-84
2020/12/08 01:55:15;;;;;;;12.38;4.95;;;1.00;99.90;;;;;;5029051;28;20029;-83
2020/12/08 01:57:47;;;;;;;11.15;4.93;;;1.10;99.90;;;;;;5029717;28;20059;-83
2020/12/08 02:00:16;;;;;;;10.43;5.20;;;1.10;99.90;;;;;;5029382;28;20025;-83
2020/12/08 02:02:45;;;;;;;11.50;4.13;;;1.00;99.90;;;;;;5029434;28;20060;-83
2020/12/08 02:05:35;;;;;;;9.02;4.43;;;0.90;99.90;;;;;;5031636;28;20026;-83
2020/12/08 02:08:01;;;;;;;9.55;4.20;;;1.00;99.90;;;;;;5028747;28;20057;-83
2020/12/08 02:10:28;;;;;;;11.32;5.22;;;0.90;99.90;;;;;;5028865;28;20108;-83
2020/12/08 02:12:56;;;;;;;8.13;4.13;;;1.00;99.90;;;;;;5028885;28;20022;-85
2020/12/08 02:15:31;;;;;;;8.88;4.75;;;1.00;99.90;;;;;;5017844;28;20041;-84
2020/12/08 02:17:58;;;;;;;8.52;3.58;;;0.90;99.90;;;;;;4992928;28;20037;-83
2020/12/08 02:20:27;;;;;;;8.52;4.07;;;0.80;99.90;;;;;;5025339;28;20045;-84
2020/12/08 02:23:02;;;;;;;9.23;4.13;;;0.80;99.90;;;;;;4992666;28;20048;-82
2020/12/08 02:25:31;;;;;;;8.30;4.07;;;0.80;99.90;;;;;;5009085;28;20025;-83
2020/12/08 02:27:58;;;;;;;7.65;3.30;;;0.70;99.90;;;;;;5008655;28;20469;-83
2020/12/08 02:30:24;;;;;;;11.45;4.50;;;0.60;99.90;;;;;;5026081;28;20045;-83
2020/12/08 02:32:50;;;;;;;8.88;3.83;;;0.60;99.90;;;;;;5028513;28;20026;-85
2020/12/08 02:35:16;;;;;;;10.65;3.83;;;0.60;99.90;;;;;;5011816;28;20032;-84
2020/12/08 02:37:41;;;;;;;10.15;3.83;;;0.50;99.90;;;;;;5028336;28;20049;-84
2020/12/08 02:40:07;;;;;;;9.25;4.22;;;0.70;99.90;;;;;;5028225;28;20075;-83
2020/12/08 02:42:36;;;;;;;9.15;3.88;;;0.70;99.90;;;;;;5028608;28;20068;-83
2020/12/08 02:45:02;;;;;;;12.60;4.40;;;0.70;99.90;;;;;;5028404;28;20027;-85
2020/12/08 02:47:30;;;;;;;9.48;4.13;;;0.70;99.90;;;;;;5028350;28;20034;-84
2020/12/08 02:49:56;;;;;;;8.95;4.35;;;0.70;99.90;;;;;;5011915;28;20029;-82
2020/12/08 02:52:22;;;;;;;12.77;5.70;;;0.70;99.90;;;;;;5028108;28;20044;-85
2020/12/08 02:54:49;;;;;;;11.23;5.43;;;0.70;99.90;;;;;;5028442;28;20047;-83
2020/12/08 02:57:15;;;;;;;10.88;4.68;;;0.60;99.90;;;;;;5027403;28;20064;-83
2020/12/08 02:59:41;;;;;;;10.63;5.03;;;0.60;99.90;;;;;;5011785;28;20520;-84
2020/12/08 03:02:11;;;;;;;9.50;4.13;;;0.40;99.90;;;;;;5028604;28;20053;-84
2020/12/08 03:04:44;;;;;;;9.57;4.15;;;0.50;99.90;;;;;;5029187;28;20048;-83
2020/12/08 03:07:12;;;;;;;10.65;5.25;;;0.40;99.90;;;;;;5028064;28;20053;-83
2020/12/08 03:09:38;;;;;;;12.00;5.68;;;0.40;99.90;;;;;;5028127;28;20168;-85
2020/12/08 03:12:11;;;;;;;8.93;4.28;;;0.30;99.90;;;;;;5011668;28;20116;-85
2020/12/08 03:14:38;;;;;;;10.30;4.78;;;0.20;99.90;;;;;;5041254;28;20038;-84
2020/12/08 03:17:06;;;;;;;10.07;4.80;;;0.10;99.90;;;;;;5008579;28;20033;-83
2020/12/08 03:19:32;;;;;;;9.60;4.57;;;0.00;99.90;;;;;;5041268;28;20112;-84
2020/12/08 03:21:58;;;;;;;10.68;4.57;;;0.00;99.90;;;;;;5008288;28;20037;-83
2020/12/08 03:24:37;;;;;;;11.10;4.82;;;0.00;99.90;;;;;;5010336;28;20030;-83
2020/12/08 03:27:04;;;;;;;10.05;4.60;;;-0.10;99.90;;;;;;5008319;28;20038;-83
2020/12/08 03:29:30;;;;;;;11.18;5.32;;;-0.10;99.90;;;;;;5008570;28;20030;-83
2020/12/08 03:31:59;;;;;;;12.65;5.32;;;-0.10;99.90;;;;;;5008724;28;20038;-84
2020/12/08 03:34:25;;;;;;;10.60;4.72;;;-0.20;99.90;;;;;;5008209;28;20532;-84
2020/12/08 03:36:50;;;;;;;10.20;4.60;;;-0.30;99.90;;;;;;5007946;28;20026;-83
2020/12/08 03:39:17;;;;;;;11.23;4.72;;;-0.30;99.90;;;;;;5008339;28;20026;-83
2020/12/08 03:41:43;;;;;;;12.23;5.13;;;-0.30;99.90;;;;;;5008042;28;20044;-83
2020/12/08 03:44:10;;;;;;;10.60;4.95;;;-0.30;99.90;;;;;;4992118;28;20029;-83
2020/12/08 03:46:36;;;;;;;10.40;3.80;;;-0.40;99.90;;;;;;4991713;28;20048;-83
2020/12/08 03:49:02;;;;;;;10.13;4.20;;;-0.50;99.90;;;;;;5008166;28;20064;-83
2020/12/08 03:51:30;;;;;;;10.90;4.60;;;-0.40;99.90;;;;;;4992247;28;20026;-84
2020/12/08 03:54:03;;;;;;;11.13;4.43;;;-0.40;99.90;;;;;;4992966;28;20057;-83
2020/12/08 03:56:34;;;;;;;11.25;4.65;;;-0.50;99.90;;;;;;4992354;28;20536;-83
2020/12/08 03:59:05;;;;;;;12.13;4.63;;;-0.50;99.90;;;;;;4992650;28;20037;-83
2020/12/08 04:01:31;;;;;;;11.80;4.65;;;-0.50;99.90;;;;;;5007883;28;20441;-83
2020/12/08 04:03:57;;;;;;;11.93;4.50;;;-0.60;99.90;;;;;;5008136;28;20038;-83
2020/12/08 04:06:23;;;;;;;16.02;5.40;;;-0.60;99.90;;;;;;4991308;28;20084;-83
2020/12/08 04:08:49;;;;;;;10.20;4.68;;;-0.60;99.90;;;;;;5009516;28;20026;-83
2020/12/08 04:11:20;;;;;;;10.20;4.38;;;-0.60;99.90;;;;;;5011654;28;20033;-84
2020/12/08 04:13:49;;;;;;;8.60;4.10;;;-0.60;99.90;;;;;;4995569;28;20030;-83
2020/12/08 04:16:15;;;;;;;9.65;4.53;;;-0.60;99.90;;;;;;5012905;28;20040;-83
2020/12/08 04:18:45;;;;;;;10.90;3.97;;;-0.60;99.90;;;;;;5015078;28;20044;-83
2020/12/08 04:21:11;;;;;;;11.73;5.85;;;-0.90;99.90;;;;;;5014826;28;20021;-84
2020/12/08 04:23:37;;;;;;;11.75;5.68;;;-0.80;99.90;;;;;;5014816;28;20026;-83
2020/12/08 04:26:09;;;;;;;9.70;4.95;;;-0.80;99.90;;;;;;5030870;28;20026;-83
2020/12/08 04:28:36;;;;;;;12.15;5.05;;;-0.80;99.90;;;;;;5014703;28;20026;-83
2020/12/08 04:31:02;;;;;;;12.65;5.38;;;-0.80;99.90;;;;;;5014326;28;20107;-83
2020/12/08 04:33:27;;;;;;;13.68;5.20;;;-0.90;99.90;;;;;;5030869;28;20079;-84
2020/12/08 04:35:53;;;;;;;12.73;5.57;;;-0.80;99.90;;;;;;5030559;28;20049;-84
2020/12/08 04:38:18;;;;;;;12.32;5.10;;;-0.80;99.90;;;;;;5014497;28;20505;-83
2020/12/08 04:40:48;;;;;;;11.95;5.57;;;-0.90;99.90;;;;;;5014263;28;20030;-83
2020/12/08 04:43:14;;;;;;;11.57;4.87;;;-0.90;99.90;;;;;;5014035;28;20048;-83
2020/12/08 04:45:40;;;;;;;11.00;4.93;;;-0.90;99.90;;;;;;5013966;28;20698;-83
2020/12/08 04:48:06;;;;;;;12.10;5.43;;;-0.90;99.90;;;;;;5030332;28;20029;-83
2020/12/08 04:50:32;;;;;;;11.60;5.18;;;-0.90;99.90;;;;;;5030545;28;20036;-83
2020/12/08 04:52:57;;;;;;;9.35;4.72;;;-1.00;99.90;;;;;;5013978;28;20029;-83
2020/12/08 04:55:23;;;;;;;10.38;4.63;;;-0.90;99.90;;;;;;5030356;28;20072;-83
2020/12/08 04:57:49;;;;;;;11.68;4.90;;;-0.80;99.90;;;;;;5030220;28;20090;-83
2020/12/08 05:00:15;;;;;;;14.25;4.82;;;-0.90;99.90;;;;;;5013995;28;20030;-84
2020/12/08 05:02:52;;;;;;;14.02;5.47;;;-0.80;99.90;;;;;;5029998;28;20045;-82
2020/12/08 05:05:18;;;;;;;12.93;5.40;;;-0.80;99.90;;;;;;5029101;28;20072;-82
2020/12/08 05:07:45;;;;;;;10.02;4.60;;;-0.80;99.90;;;;;;5083138;28;20037;-83
2020/12/08 05:10:12;;;;;;;10.15;4.57;;;-0.70;99.90;;;;;;5049746;28;20029;-83
2020/12/08 05:12:38;;;;;;;13.20;5.70;;;-0.60;99.90;;;;;;5066546;28;20029;-84
2020/12/08 05:15:04;;;;;;;14.85;6.93;;;-0.50;99.90;;;;;;5050962;28;20025;-83
2020/12/08 05:17:31;;;;;;;14.93;6.57;;;-0.30;99.90;;;;;;5051107;28;20074;-82
2020/12/08 05:20:17;;;;;;;16.27;6.82;;;-0.20;99.90;;;;;;5082610;28;20040;-82
2020/12/08 05:22:58;;;;;;;16.65;7.22;;;-0.10;99.90;;;;;;5049502;28;20171;-84
2020/12/08 05:25:27;;;;;;;14.30;7.03;;;0.00;99.90;;;;;;5049473;28;20035;-83
2020/12/08 05:27:58;;;;;;;13.48;6.60;;;0.00;99.90;;;;;;5049369;28;20041;-83
2020/12/08 05:30:25;;;;;;;13.05;6.07;;;0.20;99.90;;;;;;5067368;28;20049;-83
2020/12/08 05:32:51;;;;;;;16.50;7.22;;;0.20;99.90;;;;;;5049251;28;20037;-85
2020/12/08 05:35:18;;;;;;;16.00;6.97;;;0.20;99.90;;;;;;5049489;28;20029;-84
2020/12/08 05:37:47;;;;;;;13.75;7.18;;;0.20;99.90;;;;;;5049187;28;20040;-81
2020/12/08 05:40:15;;;;;;;17.08;7.45;;;0.20;99.90;;;;;;5073046;28;20120;-82
2020/12/08 05:42:42;;;;;;;16.92;7.50;;;0.20;99.90;;;;;;5058347;28;20060;-82
2020/12/08 05:45:11;;;;;;;17.38;7.70;;;0.30;99.90;;;;;;5065466;28;20067;-83
2020/12/08 05:47:55;;;;;;;19.02;7.50;;;0.40;99.90;;;;;;5053732;28;20037;-82
2020/12/08 05:50:23;;;;;;;16.58;7.15;;;0.40;99.90;;;;;;5046142;28;20021;-81
2020/12/08 05:52:53;;;;;;;15.73;7.07;;;0.30;99.90;;;;;;5047073;28;20033;-82
2020/12/08 05:55:23;;;;;;;13.48;6.82;;;0.40;99.90;;;;;;5065330;28;20124;-82
2020/12/08 05:57:50;;;;;;;15.30;6.60;;;0.40;99.90;;;;;;5048564;28;20067;-83
2020/12/08 06:00:26;;;;;;;13.40;6.65;;;0.30;99.90;;;;;;5065426;28;20059;-82
2020/12/08 06:02:54;;;;;;;10.45;6.22;;;0.30;99.90;;;;;;5048454;28;20053;-81
2020/12/08 06:05:27;;;;;;;12.20;5.63;;;0.30;99.90;;;;;;5049756;23;20458;-82
2020/12/08 06:07:52;;;;;;;15.63;6.53;;;0.40;99.90;;;;;;5045490;28;20041;-81
2020/12/08 06:10:19;;;;;;;13.35;6.25;;;0.40;99.90;;;;;;5045695;28;20060;-81
2020/12/08 06:12:56;;;;;;;13.23;6.50;;;0.50;99.90;;;;;;5028721;28;20029;-81
2020/12/08 06:15:22;;;;;;;12.23;5.88;;;0.50;99.90;;;;;;5028769;28;20030;-81
2020/12/08 06:17:49;;;;;;;15.27;6.60;;;0.50;99.90;;;;;;5045252;28;20033;-82
2020/12/08 06:20:15;;;;;;;15.18;6.60;;;0.60;99.90;;;;;;5045175;28;20033;-81
2020/12/08 06:22:41;;;;;;;12.65;6.15;;;0.50;99.90;;;;;;5045188;28;20049;-85
2020/12/08 06:25:06;;;;;;;13.27;6.15;;;0.60;99.90;;;;;;5045037;28;20075;-81
2020/12/08 06:27:34;;;;;;;15.20;7.03;;;0.60;99.90;;;;;;5028557;28;20033;-81
2020/12/08 06:30:00;;;;;;;16.45;7.55;;;0.60;99.90;;;;;;5045026;28;20030;-81
2020/12/08 06:32:30;;;;;;;13.63;6.85;;;0.70;99.90;;;;;;5044370;28;20033;-80
2020/12/08 06:35:10;;;;;;;11.68;6.25;;;0.70;99.90;;;;;;5028428;28;20033;-80
2020/12/08 06:37:41;;;;;;;;;;;0.70;99.90;;;;;;5028788;28;20033;-81
2020/12/08 06:40:09;;;;;;;13.38;6.55;;;0.80;99.90;;;;;;5044639;28;19909;-81
2020/12/08 06:42:38;;;;;;;14.00;6.63;;;0.80;99.90;;;;;;5044795;28;20042;-82
2020/12/08 06:45:12;;;;;;;14.05;7.18;;;0.80;99.90;;;;;;5036330;28;20097;-82
2020/12/08 06:47:39;;;;;;;14.50;6.95;;;0.80;99.90;;;;;;5026953;28;20033;-82
2020/12/08 06:50:07;;;;;;;14.25;7.40;;;0.80;99.90;;;;;;5038263;28;20034;-81
2020/12/08 06:52:37;;;;;;;14.90;8.18;;;0.90;99.90;;;;;;5029461;28;20065;-82
2020/12/08 06:55:03;;;;;;;;;;;0.90;99.90;;;;;;5024780;28;20041;-82
2020/12/08 06:57:29;;;;;;;14.30;6.70;;;0.90;99.90;;;;;;5042119;28;19909;-82
2020/12/08 07:00:11;;;;;;;14.48;6.78;;;0.90;99.90;;;;;;5040723;28;20025;-83
2020/12/08 07:02:49;;;;;;;18.58;7.68;;;0.90;99.90;;;;;;5032612;28;20045;-82
2020/12/08 07:05:21;;;;;;;13.85;6.93;;;0.90;99.90;;;;;;5043270;28;20034;-82
2020/12/08 07:07:48;;;;;;;15.75;7.47;;;0.90;99.90;;;;;;5043914;28;20044;-85
2020/12/08 07:10:14;;;;;;;16.40;7.53;;;0.90;99.90;;;;;;4997053;28;20069;-84
2020/12/08 07:12:45;;;;;;;14.90;7.57;;;1.00;99.90;;;;;;5008151;28;20076;-82
2020/12/08 07:15:15;;;;;;;14.38;6.95;;;1.00;99.90;;;;;;5013409;28;20056;-83
2020/12/08 07:17:42;;;;;;;15.88;7.95;;;1.00;99.90;;;;;;5037396;28;20171;-82
2020/12/08 07:20:08;;;;;;;16.58;8.18;;;1.10;99.90;;;;;;5018304;28;20030;-82
2020/12/08 07:22:44;;;;;;;17.92;8.70;;;1.00;99.90;;;;;;5007813;28;20114;-81
2020/12/08 07:25:12;;;;;;;17.67;7.82;;;1.00;99.90;;;;;;5022631;28;20030;-82
2020/12/08 07:27:44;;;;;;;16.02;7.32;;;1.10;99.90;;;;;;5026247;28;20111;-82
2020/12/08 07:30:10;;;;;;;17.05;8.48;;;1.00;99.90;;;;;;5043733;28;20034;-83
2020/12/08 07:32:36;;;;;;;16.23;7.95;;;1.10;99.90;;;;;;5044119;28;20037;-81
2020/12/08 07:35:02;;;;;;;15.23;7.43;;;1.10;99.90;;;;;;5043782;28;20032;-81
2020/12/08 07:37:36;;;;;;;15.32;7.50;;;1.10;99.90;;;;;;5043876;28;20072;-82
2020/12/08 07:40:10;;;;;;;15.80;7.63;;;1.00;99.90;;;;;;5044869;28;20018;-82
2020/12/08 07:42:37;;;;;;;15.93;7.75;;;1.20;99.90;;;;;;5028367;28;20171;-83
2020/12/08 07:45:08;;;;;;;18.23;8.77;;;1.20;99.90;;;;;;5031211;28;20071;-82
2020/12/08 07:47:34;;;;;;;16.67;8.38;;;1.20;99.90;;;;;;5013460;28;20179;-82
2020/12/08 07:50:00;;;;;;;18.85;9.73;;;1.20;99.90;;;;;;5027881;28;20113;-83
2020/12/08 07:52:25;;;;;;;16.02;8.13;;;1.20;99.90;;;;;;5027755;28;20520;-84
2020/12/08 07:54:51;;;;;;;19.77;10.23;;;1.20;99.90;;;;;;5027482;28;20099;-83
2020/12/08 07:57:17;;;;;;;19.00;9.15;;;1.30;99.90;;;;;;5027778;28;20034;-84
2020/12/08 07:59:43;;;;;;;18.58;9.50;;;1.30;99.90;;;;;;5027852;28;20041;-85
2020/12/08 08:02:08;;;;;;;18.80;9.20;;;1.30;99.90;;;;;;5029278;28;20030;-83
2020/12/08 08:04:34;;;;;;;17.98;9.00;;;1.30;99.90;;;;;;5027324;28;20061;-82
2020/12/08 08:07:00;;;;;;;17.33;8.35;;;1.30;99.90;;;;;;5009549;28;20049;-82
2020/12/08 08:09:25;;;;;;;17.13;8.68;;;1.20;99.90;;;;;;4994731;28;20493;-82
2020/12/08 08:11:51;;;;;;;16.25;8.23;;;1.30;99.90;;;;;;5027505;28;20116;-82
2020/12/08 08:14:17;;;;;;;18.65;9.10;;;1.40;99.90;;;;;;4994619;28;20036;-82
2020/12/08 08:16:49;;;;;;;19.25;8.88;;;1.40;99.90;;;;;;4971667;28;20533;-83
2020/12/08 08:19:14;;;;;;;16.20;9.18;;;1.40;99.90;;;;;;5026766;28;20038;-82
2020/12/08 08:21:46;;;;;;;16.35;8.93;;;1.40;99.90;;;;;;5026103;28;20108;-82
2020/12/08 08:24:12;;;;;;;16.67;8.38;;;1.40;99.90;;;;;;5028224;28;20030;-82
2020/12/08 08:26:41;;;;;;;17.10;7.90;;;1.50;99.90;;;;;;5014120;28;20088;-82
2020/12/08 08:29:08;;;;;;;18.35;9.20;;;1.50;99.90;;;;;;5027142;28;20042;-81
2020/12/08 08:31:34;;;;;;;14.93;8.63;;;1.50;99.90;;;;;;5027084;28;20105;-82
2020/12/08 08:34:00;;;;;;;17.58;8.98;;;1.50;99.90;;;;;;5010593;28;20050;-82
2020/12/08 08:36:25;;;;;;;17.08;9.15;;;1.60;99.90;;;;;;5026864;28;20125;-81
2020/12/08 08:38:51;;;;;;;19.40;9.43;;;1.60;99.90;;;;;;4994086;28;20034;-82
2020/12/08 08:41:16;;;;;;;18.52;10.15;;;1.60;99.90;;;;;;5008948;28;20061;-82
2020/12/08 08:43:42;;;;;;;18.23;9.35;;;1.60;99.90;;;;;;4990629;28;20093;-82
2020/12/08 08:46:09;;;;;;;19.27;10.68;;;1.60;99.90;;;;;;5022809;28;20037;-82
2020/12/08 08:48:36;;;;;;;18.50;9.82;;;1.70;99.90;;;;;;4990418;28;20124;-82
2020/12/08 08:51:02;;;;;;;18.58;10.02;;;1.60;99.90;;;;;;5022580;28;20037;-82
2020/12/08 08:53:27;;;;;;;17.23;9.13;;;1.70;99.90;;;;;;5000329;28;20025;-85
2020/12/08 08:55:53;;;;;;;19.20;10.25;;;1.70;99.90;;;;;;5044684;28;20055;-81
2020/12/08 08:58:18;;;;;;;18.85;10.25;;;1.70;99.90;;;;;;5045978;28;20036;-82
2020/12/08 09:00:44;;;;;;;22.25;9.77;;;1.80;99.90;;;;;;5029267;28;20536;-81
2020/12/08 09:03:10;;;;;;;16.52;8.32;;;1.80;99.90;;;;;;5042173;28;20042;-81
2020/12/08 09:05:36;;;;;;;16.05;8.18;;;1.80;99.90;;;;;;5029260;28;20045;-81
2020/12/08 09:08:02;;;;;;;20.38;10.43;;;1.80;99.90;;;;;;5012602;28;20097;-82
2020/12/08 09:10:27;;;;;;;18.48;8.75;;;1.90;99.90;;;;;;5046566;28;20036;-82
2020/12/08 09:12:53;;;;;;;19.08;10.32;;;1.90;99.90;;;;;;5029211;28;20037;-81
2020/12/08 09:15:19;;;;;;;19.55;10.00;;;1.90;99.90;;;;;;5028640;28;20030;-82
2020/12/08 09:17:44;;;;;;;19.77;10.02;;;1.90;99.90;;;;;;5012636;28;20056;-82
2020/12/08 09:20:10;;;;;;;19.48;10.18;;;1.90;99.90;;;;;;5015712;28;20049;-82
2020/12/08 09:22:36;;;;;;;19.67;10.40;;;2.00;99.90;;;;;;5008678;28;20042;-82
2020/12/08 09:25:02;;;;;;;20.17;10.15;;;2.10;99.90;;;;;;4992280;28;20030;-82
2020/12/08 09:27:27;;;;;;;18.98;10.07;;;2.10;99.90;;;;;;4992097;28;20128;-82
2020/12/08 09:29:53;;;;;;;16.60;9.60;;;2.10;99.90;;;;;;5025148;28;20041;-82
2020/12/08 09:32:19;;;;;;;17.90;10.15;;;2.20;99.90;;;;;;4992776;28;20041;-83
2020/12/08 09:34:45;;;;;;;16.58;9.73;;;2.20;99.90;;;;;;5025096;28;20101;-82
2020/12/08 09:37:10;;;;;;;19.90;11.10;;;2.20;99.90;;;;;;5006823;28;20030;-81
2020/12/08 09:39:37;;;;;;;17.52;9.93;;;2.30;99.90;;;;;;5009796;28;20048;-83
2020/12/08 09:42:03;;;;;;;19.67;9.68;;;2.30;99.90;;;;;;5044293;28;20375;-84
2020/12/08 09:44:29;;;;;;;20.20;11.13;;;2.30;99.90;;;;;;5030936;28;20034;-85
2020/12/08 09:46:55;;;;;;;17.77;10.73;;;2.40;99.90;;;;;;5044709;28;20040;-82
2020/12/08 09:49:20;;;;;;;16.45;10.25;;;2.40;99.90;;;;;;5045036;28;20033;-83
2020/12/08 09:51:47;;;;;;;21.63;11.35;;;2.50;99.90;;;;;;5024146;28;20036;-82
2020/12/08 09:54:13;;;;;;;20.13;10.63;;;2.50;99.90;;;;;;4991185;28;20030;-83
2020/12/08 09:56:38;;;;;;;20.92;11.40;;;2.60;99.90;;;;;;5008136;28;20064;-85
2020/12/08 09:59:04;;;;;;;19.63;11.68;;;2.60;99.90;;;;;;5024973;28;20033;-83
2020/12/08 10:01:32;;;;;;;23.95;12.13;;;2.60;99.90;;;;;;5004834;28;20033;-83
2020/12/08 10:03:58;;;;;;;17.83;10.65;;;2.60;99.90;;;;;;5024698;28;20134;-83
2020/12/08 10:06:24;;;;;;;19.23;11.43;;;2.70;99.90;;;;;;5030954;28;20075;-84
2020/12/08 10:08:54;;;;;;;20.75;10.95;;;2.70;99.90;;;;;;5029235;28;20026;-83
2020/12/08 10:11:20;;;;;;;20.95;11.50;;;2.80;99.90;;;;;;5008173;28;20037;-82
2020/12/08 10:13:47;;;;;;;24.02;12.30;;;2.80;99.90;;;;;;5024857;28;20045;-82
2020/12/08 10:16:18;;;;;;;19.67;11.00;;;2.90;99.90;;;;;;5009000;28;20489;-82
2020/12/08 10:18:44;;;;;;;21.60;11.80;;;2.90;99.90;;;;;;5027994;28;20454;-82
2020/12/08 10:21:10;;;;;;;19.00;11.50;;;2.90;99.90;;;;;;5019237;28;20026;-82
2020/12/08 10:23:35;;;;;;;21.30;12.10;;;2.90;99.90;;;;;;5018988;28;20050;-82
2020/12/08 10:26:01;;;;;;;19.70;11.85;;;2.90;99.90;;;;;;4993164;28;20121;-83
2020/12/08 10:28:26;;;;;;;20.23;12.23;;;2.90;99.90;;;;;;4999374;28;20080;-82
2020/12/08 10:30:52;;;;;;;18.40;11.35;;;3.00;99.90;;;;;;4980956;28;20498;-81
2020/12/08 10:33:18;;;;;;;20.15;10.90;;;3.00;99.90;;;;;;5001002;28;20061;-86
2020/12/08 10:35:43;;;;;;;19.88;11.90;;;3.00;99.90;;;;;;5041336;28;20116;-82
2020/12/08 10:38:11;;;;;;;20.88;11.25;;;3.10;99.90;;;;;;5042830;28;20041;-86
2020/12/08 10:40:37;;;;;;;19.83;11.32;;;3.10;99.90;;;;;;5030511;28;20198;-82
2020/12/08 10:43:02;;;;;;;16.92;10.55;;;3.10;99.90;;;;;;5027835;28;20135;-81
2020/12/08 10:45:31;;;;;;;17.38;10.60;;;3.10;99.90;;;;;;4990215;28;20030;-84
2020/12/08 10:47:56;;;;;;;14.43;8.93;;;3.20;99.90;;;;;;5007248;28;20041;-81
2020/12/08 10:50:22;;;;;;;18.60;10.95;;;3.30;99.90;;;;;;5007437;28;20021;-82
2020/12/08 10:52:47;;;;;;;19.95;11.20;;;3.40;99.90;;;;;;5006912;28;20485;-82
2020/12/08 10:55:14;;;;;;;19.38;10.90;;;3.50;99.90;;;;;;5008555;28;20026;-82
2020/12/08 10:57:40;;;;;;;20.73;12.00;;;3.50;99.90;;;;;;5043188;28;20029;-82
2020/12/08 11:00:05;;;;;;;18.88;11.23;;;3.60;99.90;;;;;;5043270;28;20457;-82
2020/12/08 11:02:31;;;;;;;18.48;11.07;;;3.60;99.90;;;;;;5042792;28;20037;-82
2020/12/08 11:04:57;;;;;;;18.80;11.23;;;3.60;99.90;;;;;;5042355;28;20092;-82
2020/12/08 11:07:22;;;;;;;19.88;12.30;;;3.70;99.90;;;;;;5041954;28;20037;-81
2020/12/08 11:09:48;;;;;;;21.25;12.75;;;3.70;99.90;;;;;;5044087;28;20084;-81
2020/12/08 11:12:14;;;;;;;19.98;12.65;;;3.70;99.90;;;;;;5040430;28;20215;-82
2020/12/08 11:14:41;;;;;;;21.73;12.00;;;3.80;99.90;;;;;;5026349;28;20534;-82
2020/12/08 11:17:07;;;;;;;20.05;12.48;;;3.80;99.90;;;;;;5009006;28;20026;-81
2020/12/08 11:19:33;;;;;;;17.88;11.15;;;3.90;99.90;;;;;;5030649;28;20037;-82
2020/12/08 11:22:05;;;;;;;18.77;10.35;;;3.90;99.90;;;;;;5047572;28;20060;-83
2020/12/08 11:24:31;;;;;;;18.67;11.05;;;3.90;99.90;;;;;;5047425;28;20083;-84
2020/12/08 11:26:57;;;;;;;17.88;11.10;;;4.00;99.90;;;;;;5027384;28;20041;-83
2020/12/08 11:29:24;;;;;;;23.98;12.02;;;4.10;99.90;;;;;;5027759;28;20041;-81
2020/12/08 11:31:52;;;;;;;20.85;12.10;;;4.10;99.90;;;;;;5012395;28;20038;-82
2020/12/08 11:34:18;;;;;;;19.45;11.25;;;4.00;99.90;;;;;;5013936;28;20060;-85
2020/12/08 11:36:44;;;;;;;19.02;11.68;;;4.10;99.90;;;;;;5047135;28;20095;-84
2020/12/08 11:39:09;;;;;;;19.70;11.63;;;4.10;99.90;;;;;;5047245;28;20124;-83
2020/12/08 11:41:41;;;;;;;16.77;10.82;;;4.10;99.90;;;;;;5047003;28;20035;-82
2020/12/08 11:44:07;;;;;;;21.33;12.38;;;4.10;99.90;;;;;;5047538;28;20033;-85
2020/12/08 11:46:32;;;;;;;19.20;11.68;;;4.10;99.90;;;;;;5043303;28;20048;-86
2020/12/08 11:48:58;;;;;;;21.13;11.77;;;4.10;99.90;;;;;;5043886;28;20034;-84
2020/12/08 11:51:23;;;;;;;20.35;13.25;;;4.10;99.90;;;;;;5027263;28;20053;-81
2020/12/08 11:53:49;;;;;;;21.50;12.90;;;4.20;99.90;;;;;;5027241;28;20160;-84
2020/12/08 11:56:15;;;;;;;23.73;12.70;;;4.20;99.90;;;;;;5012718;28;20085;-84
2020/12/08 11:58:40;;;;;;;20.60;12.77;;;4.20;99.90;;;;;;5047055;28;20025;-83
2020/12/08 12:01:07;;;;;;;19.15;11.18;;;4.30;99.90;;;;;;5046833;28;20374;-85
2020/12/08 12:03:53;;;;;;;20.02;12.52;;;4.30;99.90;;;;;;5046670;28;20040;-81
2020/12/08 12:06:21;;;;;;;18.98;10.73;;;4.30;99.90;;;;;;5007185;28;20049;-82
2020/12/08 12:08:46;;;;;;;22.58;12.90;;;4.30;99.90;;;;;;4947852;28;20043;-85
2020/12/08 12:11:12;;;;;;;19.48;11.23;;;4.40;99.90;;;;;;4962874;28;20046;-81
2020/12/08 12:13:37;;;;;;;20.08;11.43;;;4.40;99.90;;;;;;4980272;28;20035;-81
2020/12/08 12:16:03;;;;;;;19.10;10.57;;;4.40;99.90;;;;;;4978451;28;20035;-85
2020/12/08 12:18:29;;;;;;;18.63;11.10;;;4.50;99.90;;;;;;4969738;28;20106;-84
2020/12/08 12:20:54;;;;;;;17.42;10.93;;;4.50;99.90;;;;;;4981897;28;20046;-82
2020/12/08 12:23:20;;;;;;;17.45;10.60;;;4.50;99.90;;;;;;4985987;28;20403;-81
2020/12/08 12:25:45;;;;;;;19.83;12.02;;;4.50;99.90;;;;;;4997359;28;20030;-83
2020/12/08 12:28:11;;;;;;;20.45;12.43;;;4.50;99.90;;;;;;4972331;28;20035;-84
2020/12/08 12:30:48;;;;;;;20.00;12.43;;;4.40;99.90;;;;;;4977986;28;20035;-83
2020/12/08 12:33:13;;;;;;;18.80;11.63;;;4.40;99.90;;;;;;4963621;28;20038;-82
2020/12/08 12:35:39;;;;;;;20.23;12.18;;;4.40;99.90;;;;;;4952565;28;20023;-83
2020/12/08 12:38:04;;;;;;;25.08;14.95;;;4.40;99.90;;;;;;4950665;28;20573;-83
2020/12/08 12:40:32;;;;;;;23.40;14.23;;;4.20;99.90;;;;;;4985083;28;20119;-83
2020/12/08 12:42:58;;;;;;;21.55;13.90;;;4.20;99.90;;;;;;4991906;28;20057;-83
2020/12/08 12:45:23;;;;;;;23.30;14.10;;;4.10;99.90;;;;;;5008571;28;20030;-81
2020/12/08 12:47:49;;;;;;;20.67;12.30;;;4.10;99.90;;;;;;5020524;28;20060;-84